createdAt,value
2023-01-25T07:14:06.181Z,-13.83
2023-01-25T07:19:13.213Z,-13.82
2023-01-25T07:24:19.851Z,-13.82
2023-01-25T07:29:24.799Z,-13.73
2023-01-25T07:34:28.999Z,-13.74
2023-01-25T07:39:32.456Z,-13.76
2023-01-25T07:44:37.295Z,-13.77
2023-01-25T07:49:49.265Z,-13.72
2023-01-25T07:54:52.612Z,-13.70
2023-01-25T07:59:57.294Z,-13.68
2023-01-25T08:05:00.702Z,-13.66
2023-01-25T08:10:04.274Z,-13.63
2023-01-25T08:15:09.870Z,-13.55
2023-01-25T08:20:13.965Z,-13.46
2023-01-25T08:25:19.548Z,-13.35
2023-01-25T08:30:24.545Z,-13.25
2023-01-25T08:35:28.328Z,-13.35
2023-01-25T08:40:31.792Z,-13.26
2023-01-25T08:45:37.192Z,-13.36
2023-01-25T08:50:40.597Z,-13.28
2023-01-25T08:55:44.026Z,-13.42
2023-01-25T09:00:51.380Z,-13.56
2023-01-25T09:05:57.837Z,-13.60
2023-01-25T09:11:05.280Z,-13.44
2023-01-25T09:16:11.003Z,-13.41
2023-01-25T09:21:17.915Z,-13.47
2023-01-25T09:26:21.432Z,-13.61
2023-01-25T09:31:28.789Z,-13.57
2023-01-25T09:36:47.954Z,-13.62
2023-01-25T09:42:21.398Z,-13.55
2023-01-25T09:47:30.520Z,-13.55
2023-01-25T09:52:55.105Z,-13.70
2023-01-25T09:58:00.929Z,-13.66
2023-01-25T10:03:11.632Z,-13.65
2023-01-25T10:08:20.457Z,-13.60
2023-01-25T10:13:25.208Z,-13.54
2023-01-25T10:18:33.105Z,-13.56
2023-01-25T10:23:45.690Z,-13.62
2023-01-25T10:28:52.166Z,-13.68
2023-01-25T10:34:00.146Z,-13.81
2023-01-25T10:39:07.411Z,-13.70
2023-01-25T10:44:25.351Z,-13.79
2023-01-25T10:49:37.122Z,-13.60
2023-01-25T10:54:40.548Z,-13.56
2023-01-25T10:59:46.077Z,-13.52
2023-01-25T11:04:53.401Z,-13.43
2023-01-25T11:09:57.017Z,-13.46
2023-01-25T11:15:20.328Z,-13.42
2023-01-25T11:20:25.911Z,-13.39
2023-01-25T11:25:31.322Z,-13.41
2023-01-25T11:30:34.980Z,-13.36
2023-01-25T11:35:44.988Z,-13.42
2023-01-25T11:40:50.914Z,-13.57
2023-01-25T11:46:12.190Z,-13.53
2023-01-25T11:51:24.977Z,-13.52
2023-01-25T11:56:33.709Z,-13.80
2023-01-25T12:01:39.167Z,-13.79
2023-01-25T12:06:50.548Z,-13.76
2023-01-25T12:11:57.578Z,-13.73
2023-01-25T12:17:09.249Z,-13.76
2023-01-25T12:22:29.532Z,-13.75
2023-01-25T12:27:40.741Z,-13.79
2023-01-25T12:32:46.948Z,-13.93
2023-01-25T12:37:54.938Z,-13.82
2023-01-25T12:43:00.000Z,-13.94
2023-01-25T12:48:07.120Z,-13.82
2023-01-25T12:53:20.705Z,-13.90
2023-01-25T12:58:37.851Z,-14.03
2023-01-25T13:03:53.211Z,-14.15
2023-01-25T13:09:01.880Z,-14.15
2023-01-25T13:14:28.894Z,-14.18
2023-01-25T13:19:57.817Z,-14.18
2023-01-25T13:25:54.204Z,-14.27
2023-01-25T13:31:03.186Z,-14.17
2023-01-25T13:36:25.364Z,-14.20
2023-01-25T13:41:28.762Z,-14.19
2023-01-25T13:46:34.306Z,-14.14
2023-01-25T13:51:39.393Z,-14.09
2023-01-25T13:56:42.946Z,-14.08
2023-01-25T14:01:48.720Z,-14.06
2023-01-25T14:06:57.373Z,-14.20
2023-01-25T14:12:03.994Z,-14.26
2023-01-25T14:17:17.496Z,-14.27
2023-01-25T14:22:26.161Z,-14.26
2023-01-25T14:27:29.670Z,-14.22
2023-01-25T14:32:36.533Z,-14.15
2023-01-25T14:37:45.805Z,-14.14
2023-01-25T14:42:49.769Z,-14.23
2023-01-25T14:47:59.510Z,-14.22
2023-01-25T14:53:08.741Z,-14.26
2023-01-25T14:58:15.337Z,-14.29
2023-01-25T15:03:22.470Z,-14.36
2023-01-25T15:08:33.381Z,-14.34
2023-01-25T15:13:36.842Z,-14.40
2023-01-25T15:18:47.987Z,-14.41
2023-01-25T15:23:51.746Z,-14.50
2023-01-25T15:28:56.249Z,-14.53
2023-01-25T15:34:03.656Z,-14.54
2023-01-25T15:39:07.473Z,-14.56
2023-01-25T15:44:11.038Z,-14.64
2023-01-25T15:49:18.567Z,-14.62
2023-01-25T15:54:22.351Z,-14.55
2023-01-25T15:59:27.120Z,-14.69
2023-01-25T16:04:32.038Z,-14.84
2023-01-25T16:09:35.453Z,-14.81
2023-01-25T16:14:38.860Z,-14.69
2023-01-25T16:19:46.081Z,-14.82
2023-01-25T16:24:49.637Z,-14.80
2023-01-25T16:29:53.315Z,-14.73
2023-01-25T16:34:58.091Z,-14.71
2023-01-25T16:40:03.775Z,-14.70
2023-01-25T16:45:08.682Z,-14.67
2023-01-25T16:50:14.968Z,-14.68
2023-01-25T16:55:19.450Z,-14.69
2023-01-25T17:00:41.121Z,-14.76
2023-01-25T17:06:01.969Z,-14.81
2023-01-25T17:16:56.108Z,-14.85
2023-01-25T17:22:00.008Z,-14.85
2023-01-25T17:27:08.341Z,-14.85
2023-01-25T17:32:11.934Z,-14.82
2023-01-25T17:37:15.391Z,-14.83
2023-01-25T17:42:22.165Z,-14.75
2023-01-25T17:47:25.577Z,-14.79
2023-01-25T17:52:28.991Z,-14.76
2023-01-25T17:57:35.539Z,-14.78
2023-01-25T18:02:39.502Z,-14.84
2023-01-25T18:07:45.163Z,-14.90
2023-01-25T18:13:03.583Z,-15.04
2023-01-25T18:18:08.493Z,-15.10
2023-01-25T18:23:14.476Z,-15.07
2023-01-25T18:28:19.256Z,-15.01
2023-01-25T18:33:25.022Z,-14.98
2023-01-25T18:38:31.087Z,-14.91
2023-01-25T18:43:40.156Z,-14.90
2023-01-25T18:48:51.179Z,-15.01
2023-01-25T18:59:16.713Z,-14.99
2023-01-25T19:04:21.354Z,-15.10
2023-01-25T19:09:29.638Z,-15.14
2023-01-25T19:14:35.471Z,-15.08
2023-01-25T19:19:41.035Z,-15.19
2023-01-25T19:25:00.000Z,-15.15
2023-01-25T19:35:45.921Z,-15.09
2023-01-25T19:40:58.092Z,-15.14
2023-01-25T19:46:15.262Z,-15.14
2023-01-25T19:51:42.595Z,-15.12
2023-01-25T19:56:48.974Z,-15.11
2023-01-25T20:01:53.914Z,-15.01
2023-01-25T20:06:57.390Z,-15.23
2023-01-25T20:12:03.125Z,-15.18
2023-01-25T20:17:10.229Z,-15.17
2023-01-25T20:22:15.364Z,-15.14
2023-01-25T20:27:20.292Z,-15.15
2023-01-25T20:32:32.764Z,-15.18
2023-01-25T20:37:37.519Z,-15.18
2023-01-25T20:42:40.995Z,-15.14
2023-01-25T20:47:48.402Z,-15.07
2023-01-25T20:52:52.450Z,-15.06
2023-01-25T20:57:55.954Z,-15.15
2023-01-25T21:03:01.104Z,-15.08
2023-01-25T21:08:04.603Z,-15.09
2023-01-25T21:13:08.211Z,-15.08
2023-01-25T21:18:13.090Z,-15.17
2023-01-25T21:23:16.615Z,-15.34
2023-01-25T21:28:20.093Z,-15.26
2023-01-25T21:33:25.681Z,-15.31
2023-01-25T21:38:29.011Z,-15.36
2023-01-25T21:43:56.649Z,-15.36
2023-01-25T21:49:20.334Z,-15.28
2023-01-25T21:54:26.935Z,-15.51
2023-01-25T21:59:30.615Z,-15.39
2023-01-25T22:04:36.171Z,-15.35
2023-01-25T22:09:40.177Z,-15.28
2023-01-25T22:14:43.751Z,-15.24
2023-01-25T22:19:49.077Z,-15.27
2023-01-25T22:24:52.577Z,-15.31
2023-01-25T22:29:56.033Z,-15.24
2023-01-25T22:35:01.545Z,-15.16
2023-01-25T22:40:06.325Z,-15.12
2023-01-25T22:45:10.316Z,-15.13
2023-01-25T22:50:15.223Z,-15.17
2023-01-25T22:55:20.853Z,-15.18
2023-01-25T23:00:24.926Z,-15.20
2023-01-25T23:05:33.361Z,-15.24
2023-01-25T23:10:36.747Z,-15.21
